createdAt,value
2019-02-25T00:01:18.871Z,13.53
2019-02-25T00:11:20.859Z,10.50
2019-02-25T00:21:22.830Z,9.68
2019-02-25T00:31:25.584Z,8.13
2019-02-25T00:41:27.595Z,8.17
2019-02-25T00:51:29.971Z,8.95
2019-02-25T01:01:32.130Z,16.07
2019-02-25T01:11:34.295Z,9.90
2019-02-25T01:21:36.383Z,10.20
2019-02-25T01:31:38.477Z,10.95
2019-02-25T01:41:40.465Z,8.28
2019-02-25T01:51:42.698Z,15.83
2019-02-25T02:01:45.229Z,7.58
2019-02-25T02:11:47.243Z,9.33
2019-02-25T02:21:49.574Z,6.40
2019-02-25T02:31:52.023Z,16.90
2019-02-25T02:42:17.506Z,9.60
2019-02-25T02:52:19.906Z,8.80
2019-02-25T03:02:21.872Z,8.23
2019-02-25T03:12:23.899Z,7.60
2019-02-25T03:22:25.833Z,6.87
2019-02-25T03:32:27.928Z,5.00
2019-02-25T03:42:29.856Z,6.00
2019-02-25T03:52:32.371Z,6.55
2019-02-25T04:02:34.745Z,8.58
2019-02-25T04:12:36.765Z,8.93
2019-02-25T04:22:38.810Z,9.48
2019-02-25T04:32:40.765Z,7.22
2019-02-25T04:42:42.742Z,6.42
2019-02-25T04:52:44.862Z,11.68
2019-02-25T05:02:46.964Z,8.23
2019-02-25T05:12:48.963Z,7.12
2019-02-25T05:22:51.286Z,10.00
2019-02-25T05:32:53.329Z,10.35
2019-02-25T05:42:55.247Z,9.38
2019-02-25T05:52:57.203Z,10.65
2019-02-25T06:02:59.195Z,14.85
2019-02-25T06:13:01.127Z,8.88
2019-02-25T06:23:03.055Z,10.38
2019-02-25T06:33:05.182Z,29.10
2019-02-25T06:43:07.139Z,16.12
2019-02-25T06:53:09.144Z,10.58
2019-02-25T07:03:11.144Z,10.75
2019-02-25T07:13:13.138Z,10.82
2019-02-25T07:23:15.495Z,12.10
2019-02-25T07:33:17.722Z,13.22
2019-02-25T07:43:21.747Z,12.63
2019-02-25T07:53:24.773Z,18.80
2019-02-25T08:03:26.746Z,9.20
2019-02-25T08:13:28.748Z,12.28
2019-02-25T08:23:30.683Z,16.80
2019-02-25T08:33:33.013Z,8.63
2019-02-25T08:43:36.538Z,12.45
2019-02-25T08:53:38.510Z,10.95
2019-02-25T09:03:41.909Z,9.70
2019-02-25T09:23:45.447Z,8.38
2019-02-25T09:33:47.562Z,13.55
2019-02-25T09:43:49.567Z,10.38
2019-02-25T09:53:51.542Z,10.30
2019-02-25T10:03:53.989Z,6.08
2019-02-25T10:13:56.245Z,9.40
2019-02-25T10:23:58.207Z,4.97
2019-02-25T10:34:00.258Z,6.53
2019-02-25T10:44:04.825Z,7.25
2019-02-25T10:54:06.773Z,8.00
2019-02-25T11:04:08.807Z,8.98
2019-02-25T11:14:11.399Z,4.55
2019-02-25T11:24:14.448Z,7.17
2019-02-25T11:34:17.641Z,8.70
2019-02-25T11:44:21.177Z,9.73
2019-02-25T11:54:23.663Z,3.00
2019-02-25T12:04:26.119Z,6.12
2019-02-25T12:14:28.095Z,4.30
2019-02-25T12:24:32.184Z,3.12
2019-02-25T12:34:34.367Z,2.30
2019-02-25T12:44:36.399Z,4.50
2019-02-25T12:54:38.452Z,2.77
2019-02-25T13:04:41.848Z,2.55
2019-02-25T13:14:43.853Z,3.65
2019-02-25T13:24:45.790Z,5.47
2019-02-25T13:34:48.467Z,5.90
2019-02-25T13:44:51.674Z,6.90
2019-02-25T13:54:53.832Z,2.52
2019-02-25T14:04:55.947Z,3.60
2019-02-25T14:14:58.140Z,3.63
2019-02-25T14:25:00.249Z,2.80
2019-02-25T14:35:05.192Z,5.63
2019-02-25T14:45:09.406Z,3.72
2019-02-25T14:55:13.534Z,8.55
2019-02-25T15:05:17.323Z,8.50
2019-02-25T15:15:20.288Z,5.05
2019-02-25T15:25:22.286Z,3.23
2019-02-25T15:35:26.709Z,5.00
2019-02-25T15:45:31.046Z,3.25
2019-02-25T15:55:34.815Z,9.83
2019-02-25T16:05:38.654Z,5.73
2019-02-25T16:15:41.486Z,9.55
2019-02-25T16:25:43.389Z,4.37
2019-02-25T16:35:46.141Z,4.47
2019-02-25T16:45:48.429Z,4.53
2019-02-25T16:55:51.557Z,3.45
2019-02-25T17:15:55.335Z,8.25
2019-02-25T17:25:57.636Z,5.58
2019-02-25T17:35:59.622Z,7.33
2019-02-25T17:46:05.144Z,14.18
2019-02-25T17:56:06.136Z,16.77
2019-02-25T18:06:08.142Z,17.20
2019-02-25T18:16:11.838Z,8.80
2019-02-25T18:26:14.942Z,10.43
2019-02-25T18:46:21.710Z,15.10
2019-02-25T18:56:25.242Z,17.27
2019-02-25T19:06:29.244Z,10.00
2019-02-25T19:16:31.763Z,13.28
2019-02-25T19:26:33.699Z,14.43
2019-02-25T19:36:36.929Z,17.48
2019-02-25T19:46:39.971Z,13.10
2019-02-25T19:56:41.964Z,14.03
2019-02-25T20:06:44.822Z,16.82
2019-02-25T20:16:48.231Z,12.68
2019-02-25T20:26:52.525Z,15.58
2019-02-25T20:36:55.434Z,19.27
2019-02-25T20:47:00.027Z,13.83
2019-02-25T20:57:02.026Z,16.85
2019-02-25T21:07:04.412Z,24.43
2019-02-25T21:17:08.042Z,17.70
2019-02-25T21:27:10.434Z,17.00
2019-02-25T21:37:12.770Z,20.53
2019-02-25T21:47:14.736Z,15.23
2019-02-25T21:57:17.018Z,22.70
2019-02-25T22:07:24.114Z,14.40
2019-02-25T22:17:24.584Z,22.45
2019-02-25T22:27:26.634Z,28.60
2019-02-25T22:37:29.257Z,19.82
2019-02-25T22:47:31.418Z,14.00
2019-02-25T22:57:33.314Z,15.03
2019-02-25T23:07:38.817Z,18.95
2019-02-25T23:17:40.013Z,27.32
2019-02-25T23:27:44.101Z,20.10
2019-02-25T23:37:49.052Z,15.30
2019-02-25T23:47:50.123Z,13.53
2019-02-25T23:57:52.428Z,12.50
